createdAt,value
2022-10-30T00:01:30.217Z,23.98
2022-10-30T00:03:58.811Z,19.30
2022-10-30T00:06:33.147Z,24.50
2022-10-30T00:09:01.889Z,23.52
2022-10-30T00:11:30.501Z,30.70
2022-10-30T00:13:59.668Z,24.80
2022-10-30T00:16:28.436Z,24.92
2022-10-30T00:18:57.129Z,20.73
2022-10-30T00:21:25.577Z,16.15
2022-10-30T00:23:54.237Z,18.85
2022-10-30T00:26:24.100Z,25.75
2022-10-30T00:28:56.635Z,26.02
2022-10-30T00:31:25.506Z,18.35
2022-10-30T00:33:55.390Z,21.13
2022-10-30T00:36:24.322Z,24.17
2022-10-30T00:38:53.216Z,21.02
2022-10-30T00:41:24.409Z,23.00
2022-10-30T00:43:53.447Z,17.00
2022-10-30T00:46:28.507Z,25.13
2022-10-30T00:49:12.533Z,21.77
2022-10-30T00:51:47.712Z,24.85
2022-10-30T00:54:18.695Z,26.17
2022-10-30T00:56:49.140Z,21.40
2022-10-30T00:59:25.786Z,21.55
2022-10-30T01:01:54.714Z,21.40
2022-10-30T01:04:29.089Z,16.55
2022-10-30T01:07:05.991Z,18.45
2022-10-30T01:09:34.450Z,25.77
2022-10-30T01:12:03.109Z,25.42
2022-10-30T01:14:33.033Z,19.80
2022-10-30T01:17:19.826Z,19.97
2022-10-30T01:20:44.230Z,19.88
2022-10-30T01:23:18.838Z,23.35
2022-10-30T01:25:53.886Z,21.58
2022-10-30T01:28:58.410Z,21.27
2022-10-30T01:31:41.827Z,19.55
2022-10-30T01:34:33.853Z,19.63
2022-10-30T01:37:11.125Z,20.48
2022-10-30T01:39:42.118Z,19.30
2022-10-30T01:42:43.841Z,23.50
2022-10-30T01:45:33.994Z,19.30
2022-10-30T01:48:21.480Z,20.73
2022-10-30T01:50:53.820Z,16.23
2022-10-30T01:53:37.269Z,19.77
2022-10-30T01:56:28.001Z,19.50
2022-10-30T01:59:12.657Z,25.52
2022-10-30T02:01:47.242Z,28.65
2022-10-30T02:04:17.084Z,20.80
2022-10-30T02:06:46.363Z,23.10
2022-10-30T02:09:16.413Z,19.02
2022-10-30T02:11:52.572Z,20.42
2022-10-30T02:14:31.375Z,29.42
2022-10-30T02:17:04.399Z,20.20
2022-10-30T02:19:32.936Z,22.85
2022-10-30T02:22:04.977Z,22.48
2022-10-30T02:24:33.767Z,22.33
2022-10-30T02:27:02.548Z,23.67
2022-10-30T02:29:32.502Z,21.95
2022-10-30T02:32:12.941Z,17.00
2022-10-30T02:34:43.473Z,28.63
2022-10-30T02:39:41.551Z,22.77
2022-10-30T02:42:09.916Z,21.05
2022-10-30T02:44:38.614Z,21.13
2022-10-30T02:47:07.110Z,20.20
2022-10-30T02:49:35.778Z,21.88
2022-10-30T02:52:06.989Z,29.77
2022-10-30T02:54:36.987Z,25.98
2022-10-30T02:57:06.276Z,20.98
2022-10-30T02:59:35.061Z,19.45
2022-10-30T03:02:03.975Z,17.38
2022-10-30T03:04:32.812Z,25.15
2022-10-30T03:07:01.843Z,19.13
2022-10-30T03:09:30.379Z,19.08
2022-10-30T03:11:59.968Z,22.60
2022-10-30T03:14:33.323Z,21.65
2022-10-30T03:17:01.937Z,17.90
2022-10-30T03:19:30.499Z,28.85
2022-10-30T03:21:58.989Z,21.15
2022-10-30T03:24:27.593Z,25.05
2022-10-30T03:27:06.859Z,21.73
2022-10-30T03:29:35.379Z,17.55
2022-10-30T03:32:10.034Z,21.27
2022-10-30T03:34:45.903Z,26.80
2022-10-30T03:37:14.223Z,23.55
2022-10-30T03:39:44.880Z,23.50
2022-10-30T03:44:41.803Z,20.85
2022-10-30T03:49:42.792Z,18.23
2022-10-30T03:52:16.022Z,21.73
2022-10-30T03:54:47.874Z,23.55
2022-10-30T04:00:10.804Z,19.88
2022-10-30T04:02:57.016Z,23.67
2022-10-30T04:05:28.280Z,24.65
2022-10-30T04:08:00.667Z,22.63
2022-10-30T04:10:34.761Z,18.13
2022-10-30T04:13:07.355Z,21.05
2022-10-30T04:15:39.716Z,26.02
2022-10-30T04:18:11.915Z,19.67
2022-10-30T04:20:40.547Z,16.45
2022-10-30T04:23:13.940Z,18.25
2022-10-30T04:25:42.496Z,25.60
2022-10-30T04:28:14.684Z,20.58
2022-10-30T04:30:45.812Z,20.77
2022-10-30T04:33:15.802Z,17.02
2022-10-30T04:35:44.582Z,23.20
2022-10-30T04:38:19.830Z,23.65
2022-10-30T04:40:49.575Z,23.77
2022-10-30T04:43:20.282Z,23.90
2022-10-30T04:45:53.545Z,17.83
2022-10-30T04:48:21.889Z,17.30
2022-10-30T04:50:50.367Z,23.92
2022-10-30T04:53:26.324Z,23.77
2022-10-30T04:56:01.406Z,20.35
2022-10-30T04:58:30.780Z,27.98
2022-10-30T05:01:06.921Z,22.98
2022-10-30T05:03:36.443Z,17.40
2022-10-30T05:06:22.146Z,16.60
2022-10-30T05:08:51.104Z,23.30
2022-10-30T05:11:41.159Z,20.50
2022-10-30T05:14:09.857Z,22.48
2022-10-30T05:16:39.471Z,24.08
2022-10-30T05:19:08.819Z,20.50
2022-10-30T05:21:37.476Z,16.33
2022-10-30T05:24:06.585Z,22.15
2022-10-30T05:26:43.686Z,23.15
2022-10-30T05:29:14.295Z,24.98
2022-10-30T05:31:42.986Z,29.80
2022-10-30T05:34:14.568Z,27.88
2022-10-30T05:36:43.986Z,21.73
2022-10-30T05:39:15.188Z,22.90
2022-10-30T05:41:46.995Z,20.55
2022-10-30T05:44:18.105Z,26.63
2022-10-30T05:46:57.244Z,23.65
2022-10-30T05:49:29.483Z,22.70
2022-10-30T05:51:59.233Z,28.45
2022-10-30T05:54:28.543Z,26.77
2022-10-30T05:57:15.644Z,19.77
2022-10-30T05:59:45.792Z,28.00
2022-10-30T06:02:17.390Z,33.40
2022-10-30T06:07:15.370Z,28.98
2022-10-30T06:09:44.010Z,24.15
2022-10-30T06:12:12.452Z,26.08
2022-10-30T06:15:07.357Z,21.88
2022-10-30T06:17:35.736Z,30.13
2022-10-30T06:20:19.997Z,24.90
2022-10-30T06:23:18.281Z,22.67
2022-10-30T06:26:18.964Z,25.85
2022-10-30T06:28:52.831Z,24.90
2022-10-30T06:33:55.181Z,25.52
2022-10-30T06:36:23.813Z,29.88
2022-10-30T06:38:52.250Z,26.80
2022-10-30T06:41:27.524Z,27.70
2022-10-30T06:44:23.040Z,21.45
2022-10-30T06:46:53.496Z,25.40
2022-10-30T06:49:22.015Z,23.52
2022-10-30T06:51:51.438Z,25.02
2022-10-30T06:54:19.703Z,25.52
2022-10-30T06:57:08.101Z,29.25
2022-10-30T06:59:55.160Z,24.70
2022-10-30T07:02:43.837Z,21.50
2022-10-30T07:05:17.324Z,19.70
2022-10-30T07:07:45.652Z,23.02
2022-10-30T07:10:15.116Z,29.60
2022-10-30T07:13:04.913Z,24.85
2022-10-30T07:15:46.651Z,29.70
2022-10-30T07:18:25.177Z,22.42
2022-10-30T07:20:57.895Z,19.17
2022-10-30T07:23:27.281Z,25.05
2022-10-30T07:26:04.339Z,31.35
2022-10-30T07:31:34.771Z,26.40
2022-10-30T07:34:28.447Z,22.65
2022-10-30T07:37:26.185Z,20.52
2022-10-30T07:40:20.713Z,25.42
2022-10-30T07:43:00.600Z,30.50
2022-10-30T07:45:57.770Z,24.08
2022-10-30T07:48:34.785Z,33.65
2022-10-30T07:51:23.439Z,25.85
2022-10-30T07:53:51.869Z,20.20
2022-10-30T07:56:21.677Z,27.13
2022-10-30T07:58:52.727Z,22.67
2022-10-30T08:01:33.334Z,29.45
2022-10-30T08:04:15.162Z,30.55
2022-10-30T08:06:44.296Z,22.63
2022-10-30T08:09:12.814Z,24.67
2022-10-30T08:11:41.937Z,24.70
2022-10-30T08:14:10.293Z,28.80
2022-10-30T08:16:38.762Z,23.15
2022-10-30T08:19:07.151Z,27.48
2022-10-30T08:21:35.897Z,21.33
2022-10-30T08:24:15.057Z,25.48
2022-10-30T08:26:47.057Z,32.78
2022-10-30T08:29:16.012Z,27.95
2022-10-30T08:31:49.032Z,21.73
2022-10-30T08:34:24.203Z,28.95
2022-10-30T08:39:22.813Z,23.60
2022-10-30T08:42:09.772Z,27.88
2022-10-30T08:44:44.931Z,22.90
2022-10-30T08:47:25.375Z,20.33
2022-10-30T08:49:57.957Z,57.97
2022-10-30T08:52:30.821Z,58.50
2022-10-30T08:54:59.299Z,65.70
2022-10-30T08:57:28.778Z,37.28
2022-10-30T08:59:58.933Z,25.85
2022-10-30T09:02:45.969Z,25.60
2022-10-30T09:05:33.035Z,26.30
2022-10-30T09:08:19.863Z,24.98
2022-10-30T09:11:04.114Z,21.50
2022-10-30T09:13:33.200Z,21.75
2022-10-30T09:16:03.934Z,30.98
2022-10-30T09:18:35.183Z,22.17
2022-10-30T09:21:05.131Z,24.60
2022-10-30T09:23:39.248Z,22.45
2022-10-30T09:26:30.419Z,40.47
2022-10-30T09:29:15.585Z,23.88
2022-10-30T09:31:44.127Z,21.63
2022-10-30T09:34:16.609Z,20.60
2022-10-30T09:36:49.787Z,21.70
2022-10-30T09:39:19.865Z,20.98
2022-10-30T09:42:16.467Z,16.83
2022-10-30T09:45:15.236Z,22.13
2022-10-30T09:48:03.605Z,20.13
2022-10-30T09:51:26.364Z,20.20
2022-10-30T09:54:11.710Z,23.20
2022-10-30T09:57:02.288Z,24.65
2022-10-30T09:59:35.892Z,23.88
2022-10-30T10:02:18.069Z,20.48
2022-10-30T10:04:58.018Z,23.77
2022-10-30T10:07:49.160Z,17.67
2022-10-30T10:10:41.853Z,22.48
2022-10-30T10:13:26.503Z,21.98
2022-10-30T10:16:14.057Z,15.80
2022-10-30T10:18:58.534Z,24.08
2022-10-30T10:21:29.346Z,17.90
2022-10-30T10:24:03.644Z,21.98
2022-10-30T10:27:10.622Z,22.60
2022-10-30T10:29:53.625Z,16.67
2022-10-30T10:32:21.980Z,21.48
2022-10-30T10:34:54.308Z,23.88
2022-10-30T10:37:28.318Z,20.50
2022-10-30T10:40:15.825Z,18.67
2022-10-30T10:42:53.904Z,20.90
2022-10-30T10:45:28.585Z,17.48
2022-10-30T10:50:51.573Z,15.38
2022-10-30T10:53:31.050Z,17.73
2022-10-30T10:56:01.129Z,21.92
2022-10-30T10:58:50.422Z,13.57
2022-10-30T11:01:23.666Z,15.75
2022-10-30T11:03:58.174Z,20.17
2022-10-30T11:06:40.028Z,19.02
2022-10-30T11:09:20.346Z,19.02
2022-10-30T11:11:50.456Z,15.00
2022-10-30T11:14:29.331Z,16.77
2022-10-30T11:17:03.739Z,17.60
2022-10-30T11:19:32.620Z,31.05
2022-10-30T11:22:02.397Z,17.75
2022-10-30T11:24:33.205Z,19.65
2022-10-30T11:27:24.368Z,20.00
2022-10-30T11:30:01.338Z,18.10
2022-10-30T11:32:32.850Z,17.48
2022-10-30T11:35:07.646Z,15.50
2022-10-30T11:37:40.245Z,14.93
2022-10-30T11:40:12.536Z,15.98
2022-10-30T11:43:02.925Z,17.40
2022-10-30T11:48:31.974Z,16.42
2022-10-30T11:51:02.326Z,16.58
2022-10-30T11:53:36.494Z,14.10
2022-10-30T11:56:15.412Z,17.65
2022-10-30T11:58:48.400Z,14.23
2022-10-30T12:01:30.743Z,14.73
2022-10-30T12:04:35.041Z,14.85
2022-10-30T12:07:25.276Z,15.23
2022-10-30T12:09:54.854Z,22.42
2022-10-30T12:12:42.629Z,23.50
2022-10-30T12:15:22.943Z,14.23
2022-10-30T12:18:02.712Z,11.65
2022-10-30T12:20:33.196Z,16.75
2022-10-30T12:25:49.086Z,13.93
2022-10-30T12:28:23.229Z,13.38
2022-10-30T12:30:57.943Z,14.98
2022-10-30T12:33:39.177Z,18.42
2022-10-30T12:36:14.150Z,23.95
2022-10-30T12:39:09.466Z,12.05
2022-10-30T12:41:46.006Z,15.80
2022-10-30T12:44:18.856Z,19.75
2022-10-30T12:46:56.325Z,18.02
2022-10-30T12:49:53.031Z,17.55
2022-10-30T12:52:45.798Z,21.77
2022-10-30T12:55:27.910Z,14.55
2022-10-30T12:58:06.129Z,17.63
2022-10-30T13:00:44.750Z,14.20
2022-10-30T13:03:28.505Z,20.17
2022-10-30T13:06:19.243Z,22.27
2022-10-30T13:12:08.293Z,13.30
2022-10-30T13:14:43.784Z,17.80
2022-10-30T13:17:13.859Z,15.52
2022-10-30T13:19:51.083Z,19.85
2022-10-30T13:22:20.229Z,15.07
2022-10-30T13:24:56.801Z,16.70
2022-10-30T13:27:44.520Z,16.30
2022-10-30T13:30:16.794Z,16.75
2022-10-30T13:32:51.570Z,17.73
2022-10-30T13:35:26.115Z,15.52
2022-10-30T13:38:02.085Z,18.02
2022-10-30T13:41:07.310Z,19.45
2022-10-30T13:43:48.884Z,19.83
2022-10-30T13:47:00.094Z,13.88
2022-10-30T13:49:46.731Z,23.75
2022-10-30T13:52:17.835Z,22.98
2022-10-30T13:55:07.939Z,15.63
2022-10-30T13:58:03.349Z,25.42
2022-10-30T14:00:53.105Z,20.23
2022-10-30T14:04:01.070Z,23.20
2022-10-30T14:06:40.254Z,18.13
2022-10-30T14:09:22.739Z,14.68
2022-10-30T14:11:54.979Z,14.70
2022-10-30T14:14:30.386Z,19.83
2022-10-30T14:17:12.267Z,19.85
2022-10-30T14:20:22.723Z,13.63
2022-10-30T14:23:13.520Z,18.77
2022-10-30T14:25:42.859Z,16.23
2022-10-30T14:28:21.381Z,17.45
2022-10-30T14:31:06.247Z,18.55
2022-10-30T14:33:40.865Z,18.65
2022-10-30T14:36:13.129Z,19.08
2022-10-30T14:38:51.726Z,17.17
2022-10-30T14:41:39.443Z,21.05
2022-10-30T14:44:29.165Z,23.85
2022-10-30T14:47:19.489Z,16.77
2022-10-30T14:49:57.571Z,16.27
2022-10-30T14:53:19.221Z,15.48
2022-10-30T14:55:52.789Z,14.98
2022-10-30T14:58:25.483Z,16.52
2022-10-30T15:01:14.230Z,20.30
2022-10-30T15:03:45.585Z,17.83
2022-10-30T15:06:41.210Z,15.50
2022-10-30T15:09:36.268Z,15.23
2022-10-30T15:12:38.184Z,18.55
2022-10-30T15:15:13.454Z,18.55
2022-10-30T15:17:45.813Z,15.25
2022-10-30T15:20:21.801Z,16.35
2022-10-30T15:22:58.322Z,18.98
2022-10-30T15:25:37.015Z,20.65
2022-10-30T15:28:16.927Z,22.33
2022-10-30T15:31:14.510Z,18.50
2022-10-30T15:33:42.871Z,19.58
2022-10-30T15:36:20.132Z,12.93
2022-10-30T15:39:09.169Z,18.83
2022-10-30T15:41:44.363Z,18.77
2022-10-30T15:44:18.340Z,18.35
2022-10-30T15:46:49.002Z,16.80
2022-10-30T15:51:49.779Z,16.08
2022-10-30T15:54:21.285Z,16.85
2022-10-30T15:57:31.235Z,18.38
2022-10-30T15:59:53.485Z,14.93
2022-10-30T16:02:24.058Z,21.08
2022-10-30T16:04:53.505Z,17.27
2022-10-30T16:07:24.368Z,16.95
2022-10-30T16:09:58.716Z,18.85
2022-10-30T16:12:33.576Z,13.88
2022-10-30T16:15:28.071Z,17.45
2022-10-30T16:18:30.725Z,20.42
2022-10-30T16:21:07.261Z,20.88
2022-10-30T16:23:41.584Z,22.00
2022-10-30T16:26:24.830Z,19.73
2022-10-30T16:28:53.161Z,29.00
2022-10-30T16:31:21.920Z,21.10
2022-10-30T16:33:50.771Z,42.75
2022-10-30T16:36:19.828Z,29.35
2022-10-30T16:38:50.222Z,36.78
2022-10-30T16:41:24.185Z,30.33
2022-10-30T16:44:14.057Z,24.95
2022-10-30T16:46:55.561Z,23.95
2022-10-30T16:49:28.878Z,28.08
2022-10-30T16:52:04.689Z,23.52
2022-10-30T16:54:37.349Z,26.75
2022-10-30T16:57:22.543Z,26.98
2022-10-30T16:59:52.277Z,22.13
2022-10-30T17:02:25.939Z,25.03
2022-10-30T17:05:08.652Z,21.27
2022-10-30T17:07:38.589Z,23.58
2022-10-30T17:10:58.095Z,19.15
2022-10-30T17:13:38.290Z,33.92
2022-10-30T17:16:20.324Z,27.27
2022-10-30T17:18:55.565Z,29.17
2022-10-30T17:21:36.945Z,21.17
2022-10-30T17:24:06.204Z,23.65
2022-10-30T17:26:41.364Z,26.83
2022-10-30T17:29:38.308Z,31.67
2022-10-30T17:32:23.494Z,25.65
2022-10-30T17:35:02.285Z,28.08
2022-10-30T17:37:30.624Z,30.75
2022-10-30T17:39:59.152Z,31.55
2022-10-30T17:42:27.414Z,27.15
2022-10-30T17:44:56.064Z,31.92
2022-10-30T17:47:26.283Z,28.65
2022-10-30T17:49:54.844Z,36.05
2022-10-30T17:52:23.222Z,30.83
2022-10-30T17:54:51.642Z,34.38
2022-10-30T17:57:20.116Z,29.35
2022-10-30T17:59:48.454Z,32.88
2022-10-30T18:02:22.412Z,31.13
2022-10-30T18:04:52.718Z,31.98
2022-10-30T18:07:21.061Z,28.27
2022-10-30T18:09:49.416Z,33.47
2022-10-30T18:12:19.319Z,24.52
2022-10-30T18:14:50.387Z,24.98
2022-10-30T18:17:18.791Z,23.73
2022-10-30T18:19:48.276Z,28.23
2022-10-30T18:22:16.631Z,29.35
2022-10-30T18:24:44.881Z,21.90
2022-10-30T18:27:13.348Z,24.45
2022-10-30T18:29:42.488Z,26.63
2022-10-30T18:32:10.950Z,25.95
2022-10-30T18:34:39.199Z,28.55
2022-10-30T18:37:08.595Z,27.23
2022-10-30T18:42:10.159Z,24.88
2022-10-30T18:44:38.573Z,27.45
2022-10-30T18:47:11.154Z,23.25
2022-10-30T18:49:39.518Z,29.05
2022-10-30T18:52:09.029Z,22.40
2022-10-30T18:54:37.310Z,24.85
2022-10-30T18:57:05.801Z,19.67
2022-10-30T18:59:34.974Z,24.80
2022-10-30T19:02:03.763Z,32.90
2022-10-30T19:04:32.284Z,31.15
2022-10-30T19:07:00.630Z,35.00
2022-10-30T19:09:28.943Z,30.13
2022-10-30T19:11:57.290Z,25.55
2022-10-30T19:14:25.615Z,25.95
2022-10-30T19:16:53.999Z,29.60
2022-10-30T19:19:22.393Z,30.27
2022-10-30T19:21:52.480Z,27.60
2022-10-30T19:24:20.833Z,29.25
2022-10-30T19:26:50.535Z,21.02
2022-10-30T19:29:18.863Z,26.15
2022-10-30T19:31:47.273Z,27.00
2022-10-30T19:34:15.610Z,27.08
2022-10-30T19:36:43.995Z,31.05
2022-10-30T19:39:16.873Z,34.10
2022-10-30T19:41:45.360Z,34.83
2022-10-30T19:44:13.625Z,33.25
2022-10-30T19:46:42.154Z,35.63
2022-10-30T19:49:18.530Z,37.00
2022-10-30T19:51:47.354Z,46.97
2022-10-30T19:54:16.234Z,40.72
2022-10-30T19:56:44.794Z,42.13
2022-10-30T19:59:14.531Z,38.90
2022-10-30T20:01:44.722Z,37.27
2022-10-30T20:04:13.699Z,44.30
2022-10-30T20:06:42.152Z,43.35
2022-10-30T20:09:12.395Z,37.40
2022-10-30T20:11:40.774Z,43.70
2022-10-30T20:14:09.491Z,38.90
2022-10-30T20:16:38.058Z,36.08
2022-10-30T20:19:27.706Z,41.15
2022-10-30T20:21:56.284Z,39.40
2022-10-30T20:24:24.614Z,40.50
2022-10-30T20:26:55.811Z,33.22
2022-10-30T20:29:25.066Z,38.75
2022-10-30T20:31:53.555Z,34.08
2022-10-30T20:34:22.236Z,32.42
2022-10-30T20:36:50.538Z,35.30
2022-10-30T20:39:18.874Z,33.67
2022-10-30T20:41:47.316Z,43.22
2022-10-30T20:44:16.671Z,36.10
2022-10-30T20:46:45.183Z,30.15
2022-10-30T20:49:18.481Z,35.72
2022-10-30T20:51:47.814Z,36.08
2022-10-30T20:54:17.551Z,37.22
2022-10-30T20:56:45.890Z,31.77
2022-10-30T20:59:14.239Z,35.42
2022-10-30T21:01:42.758Z,38.08
2022-10-30T21:04:11.139Z,37.35
2022-10-30T21:06:39.823Z,31.13
2022-10-30T21:09:08.171Z,33.38
2022-10-30T21:11:36.550Z,37.58
2022-10-30T21:14:04.813Z,36.63
2022-10-30T21:16:33.652Z,41.08
2022-10-30T21:19:02.055Z,32.35
2022-10-30T21:21:30.328Z,34.17
2022-10-30T21:23:58.772Z,39.65
2022-10-30T21:26:27.125Z,33.83
2022-10-30T21:28:55.660Z,42.33
2022-10-30T21:31:26.103Z,36.05
2022-10-30T21:33:54.557Z,40.83
2022-10-30T21:36:23.457Z,42.53
2022-10-30T21:38:51.754Z,31.73
2022-10-30T21:41:22.190Z,37.83
2022-10-30T21:43:59.232Z,39.78
2022-10-30T21:46:30.147Z,39.65
2022-10-30T21:49:07.185Z,33.13
2022-10-30T21:51:35.626Z,30.38
2022-10-30T21:54:06.274Z,30.00
2022-10-30T21:59:05.111Z,32.63
2022-10-30T22:01:37.190Z,33.55
2022-10-30T22:04:08.767Z,30.48
2022-10-30T22:06:42.950Z,25.65
2022-10-30T22:09:15.356Z,29.52
2022-10-30T22:11:43.931Z,26.35
2022-10-30T22:14:12.217Z,31.17
2022-10-30T22:16:40.756Z,29.90
2022-10-30T22:19:10.514Z,25.33
2022-10-30T22:21:38.839Z,29.40
2022-10-30T22:24:07.431Z,28.80
2022-10-30T22:26:35.862Z,32.53
2022-10-30T22:29:04.190Z,29.50
2022-10-30T22:31:32.504Z,29.90
2022-10-30T22:34:01.599Z,29.02
2022-10-30T22:36:32.165Z,30.50
2022-10-30T22:39:01.822Z,30.63
2022-10-30T22:41:34.500Z,34.65
2022-10-30T22:44:15.133Z,30.63
2022-10-30T22:46:43.535Z,39.03
2022-10-30T22:49:12.195Z,30.05
2022-10-30T22:51:40.712Z,32.20
2022-10-30T22:54:12.514Z,31.27
2022-10-30T22:56:41.702Z,38.97
2022-10-30T22:59:13.472Z,37.00
2022-10-30T23:01:42.096Z,32.08
2022-10-30T23:04:11.956Z,28.13
2022-10-30T23:06:40.294Z,27.07
2022-10-30T23:09:15.139Z,31.52
2022-10-30T23:11:43.933Z,29.83
2022-10-30T23:14:12.327Z,32.42
2022-10-30T23:16:41.111Z,32.58
2022-10-30T23:19:11.244Z,38.88
2022-10-30T23:21:39.710Z,30.60
2022-10-30T23:24:08.054Z,34.78
2022-10-30T23:26:36.545Z,35.42
2022-10-30T23:29:05.404Z,28.23
2022-10-30T23:31:40.444Z,27.45
2022-10-30T23:34:12.373Z,29.70
2022-10-30T23:36:42.040Z,39.63
2022-10-30T23:39:14.926Z,20.23
2022-10-30T23:41:43.524Z,23.80
2022-10-30T23:44:14.358Z,26.55
2022-10-30T23:46:43.499Z,25.55
2022-10-30T23:49:11.791Z,28.05
2022-10-30T23:51:40.084Z,30.10
2022-10-30T23:54:08.866Z,30.63
2022-10-30T23:56:37.131Z,26.52
2022-10-30T23:59:07.564Z,30.48
